ADDS METAR Data INFO
IDs: Format: Raw Decoded Include TAF

Data at: 1951 UTC 14 Aug 2018

KCID 141852Z 16005KT 9SM CLR 27/22 A2995 RMK AO2 SLP137 T02720222
KCID 141752Z VRB04KT 8SM CLR 27/22 A2997 RMK AO2 SLP143 T02670217 10267 20183 51002
KCID 141652Z 17006KT 7SM CLR 27/21 A2997 RMK AO2 SLP143 T02670211
KCID 141554Z 17006KT 8SM CLR 27/21 A2997 RMK AO2 T02670206
KCID 141552Z AUTO 18007KT 7SM 27/21 A2997 RMK AO2 SLP143 T02670206
KCID 141452Z 15005KT 7SM CLR 26/21 A2997 RMK AO2 SLP141 T02560206 58001
KCID 141352Z 15005KT 7SM CLR 23/20 A2997 RMK AO2 SLP142 T02330200
KCID 141252Z 16006KT 6SM BR CLR 18/17 A2997 RMK AO2 SLP145 T01830172
KCID 141152Z COR 16005KT 6SM HZ CLR 18/17 A2997 RMK AO2 SLP143 7//// T01830172 10200 20167 58002
KCID 141052Z 10006KT 7SM CLR 17/17 A2997 RMK AO2 SLP144 T01720167 $
KCID 140952Z 12004KT 10SM CLR 18/17 A2998 RMK AO2 SLP145 T01830172 $
KCID 140852Z AUTO 11004KT 8SM 18/17 A2998 RMK AO2 SLP145 T01830172 56007 $
KCID 140752Z AUTO 00000KT 8SM 19/18 A2998 RMK AO2 SLP148 T01940178 $
KCID 140652Z AUTO 15003KT 8SM CLR 19/18 A2999 RMK AO2 SLP148 T01940178 $
KCID 140552Z AUTO 14004KT 7SM 20/18 A3000 RMK AO2 SLP151 T02000183 10278 20194 403000167 55002 $
KCID 140452Z AUTO 12003KT 7SM 20/18 A3000 RMK AO2 SLP152 T02000183 $
KCID 140352Z 14003KT 7SM CLR 21/19 A3000 RMK AO2 SLP153 T02110194
KCID 140252Z 12003KT 7SM CLR 22/20 A3000 RMK AO2 SLP154 T02170200 53001
KCID 140152Z 00000KT 7SM CLR 23/20 A3000 RMK AO2 SLP153 T02280200
KCID 140052Z 11006KT 4SM HZ CLR 24/20 A2999 RMK AO2 SLP151 T02390200
KCID 132352Z 12004KT 7SM CLR 28/21 A3000 RMK AO2 SLP154 T02780211 10300 20278 56007
KCID 132252Z 12005KT 8SM CLR 29/20 A3001 RMK AO2 SLP157 T02890200
KCID 132152Z 14006KT 9SM CLR 30/21 A3001 RMK AO2 SLP156 T03000206
KCID 132052Z 14005KT 9SM CLR 29/20 A3002 RMK AO2 SLP161 T02940200 58017
KCID 131952Z 00000KT 9SM FEW045 FEW065 29/20 A3005 RMK AO2 SLP169 T02890200
KCID 131852Z 18003KT 9SM FEW040 29/21 A3006 RMK AO2 SLP172 T02940206
KCID 131752Z VRB03KT 10SM CLR 30/21 A3008 RMK AO2 SLP178 6//// T03000206 10300 20172
KCID 131652Z 18005KT 10SM HZ CLR 28/21 A3010 RMK AO2 SLP186 T02830211
KCID 131552Z 19005KT 10SM HZ CLR 27/21 A3010 RMK AO2 SLP187 T02720211
KCID 131452Z 24004KT 9SM HZ CLR 26/21 A3011 RMK AO2 SLP189 T02560211 58000
KCID 131352Z 18003KT 7SM HZ CLR 23/21 A3011 RMK AO2 SLP191 T02280206 $
KCID 131252Z 19003KT 6SM HZ CLR 20/19 A3011 RMK AO2 SLP193 T02000194
KCID 131152Z 12003KT 10SM CLR 18/17 A3011 RMK AO2 SLP190 T01780172 10194 20167 53002 $
KCID 131052Z 12003KT 10SM CLR 17/17 A3010 RMK AO2 SLP187 T01670167 $
KCID 130952Z COR 00000KT 10SM BR CLR 17/17 A3010 RMK AO2 SLP187 T01720167 $
KCID 130852Z AUTO 15003KT 7SM CLR 18/18 A3010 RMK AO2 SLP188 T01830178 56005 $
KCID 130752Z AUTO 10004KT 4SM BR CLR 18/18 A3011 RMK AO2 SLP189 T01830183 $